createdAt,value
2019-03-29T01:00:40.480Z,12.61
2019-03-29T01:05:41.785Z,12.58
2019-03-29T01:10:43.116Z,12.46
2019-03-29T01:15:44.432Z,12.24
2019-03-29T01:20:45.774Z,12.16
2019-03-29T01:25:47.090Z,12.20
2019-03-29T02:34:10.207Z,11.66
2019-03-29T02:39:12.256Z,11.65
2019-03-29T02:44:13.580Z,11.63
2019-03-29T02:49:14.895Z,11.58
2019-03-29T02:54:16.209Z,11.47
2019-03-29T02:59:17.497Z,11.42
2019-03-29T04:01:18.324Z,10.69
2019-03-29T04:06:20.353Z,10.53
2019-03-29T04:11:21.686Z,10.41
2019-03-29T04:16:23.010Z,10.29
2019-03-29T04:21:24.371Z,10.31
2019-03-29T04:26:25.721Z,10.32
2019-03-29T05:34:47.249Z,10.34
2019-03-29T05:39:48.608Z,10.35
2019-03-29T05:44:50.010Z,10.39
2019-03-29T05:49:51.298Z,10.47
2019-03-29T05:54:52.649Z,10.47
2019-03-29T05:59:54.715Z,10.60
2019-03-29T07:01:59.175Z,11.23
2019-03-29T07:07:00.453Z,11.34
2019-03-29T07:12:01.797Z,11.24
2019-03-29T07:17:03.122Z,11.41
2019-03-29T07:22:04.398Z,11.63
2019-03-29T07:27:06.461Z,11.66
2019-03-29T08:35:28.149Z,12.81
2019-03-29T08:40:29.455Z,12.75
2019-03-29T08:45:30.772Z,12.79
2019-03-29T08:50:32.064Z,12.98
2019-03-29T08:55:45.110Z,13.08
2019-03-29T09:00:34.681Z,13.10
2019-03-29T10:02:36.473Z,14.01
2019-03-29T10:07:37.765Z,14.13
2019-03-29T10:12:43.682Z,14.23
2019-03-29T10:17:40.474Z,14.48
2019-03-29T10:22:41.836Z,14.83
2019-03-29T10:27:43.097Z,14.66
2019-03-29T11:36:06.448Z,16.25
2019-03-29T11:41:08.468Z,15.91
2019-03-29T11:46:09.745Z,16.48
2019-03-29T11:51:19.192Z,16.34
2019-03-29T11:56:12.357Z,16.75
2019-03-29T13:04:36.321Z,19.79
2019-03-29T13:09:39.775Z,19.92
2019-03-29T13:14:39.657Z,20.91
2019-03-29T13:19:41.680Z,21.03
2019-03-29T13:24:42.992Z,21.20
2019-03-29T13:29:45.094Z,21.45
2019-03-29T14:31:47.869Z,26.62
2019-03-29T14:36:49.162Z,26.56
2019-03-29T14:41:50.518Z,25.87
2019-03-29T14:46:51.941Z,26.77
2019-03-29T14:51:53.227Z,26.69
2019-03-29T14:56:54.533Z,26.85
2019-03-29T16:05:16.414Z,27.44
2019-03-29T16:10:17.769Z,27.40
2019-03-29T16:15:34.950Z,26.89
2019-03-29T16:20:27.500Z,26.47
2019-03-29T16:25:28.869Z,25.75
2019-03-29T16:30:32.842Z,26.08
2019-03-29T16:35:34.832Z,26.18
2019-03-29T16:40:36.213Z,25.91
2019-03-29T16:45:47.867Z,25.32
2019-03-29T16:50:39.007Z,25.38
2019-03-29T16:55:40.366Z,25.55
2019-03-29T17:00:41.822Z,25.11
2019-03-29T17:05:43.347Z,24.81
2019-03-29T17:10:44.840Z,24.33
2019-03-29T17:15:46.280Z,23.68
2019-03-29T17:20:48.607Z,23.03
2019-03-29T17:25:49.900Z,22.20
2019-03-29T17:30:51.284Z,21.68
2019-03-29T17:35:56.445Z,21.32
2019-03-29T17:40:58.032Z,21.08
2019-03-29T17:45:59.612Z,20.82
2019-03-29T17:51:01.081Z,20.73
2019-03-29T17:56:03.356Z,20.61
2019-03-29T18:01:13.422Z,20.62
2019-03-29T18:11:34.962Z,20.40
2019-03-29T18:16:40.759Z,20.11
2019-03-29T18:21:48.439Z,19.71
2019-03-29T18:26:49.845Z,19.72
2019-03-29T18:31:51.206Z,19.66
2019-03-29T18:36:52.517Z,19.33
2019-03-29T18:41:53.921Z,19.07
2019-03-29T18:46:55.305Z,18.93
2019-03-29T18:51:56.794Z,18.80
2019-03-29T18:56:58.126Z,18.70
2019-03-29T19:01:59.778Z,18.62
2019-03-29T19:07:00.893Z,18.56
2019-03-29T19:12:02.998Z,18.43
2019-03-29T19:17:04.412Z,18.31
2019-03-29T19:22:08.078Z,18.28
2019-03-29T19:27:13.079Z,18.17
2019-03-29T19:32:18.601Z,18.01
2019-03-29T19:37:27.207Z,17.95
2019-03-29T19:42:31.517Z,17.96
2019-03-29T19:47:36.405Z,17.92
2019-03-29T19:52:40.097Z,17.80
2019-03-29T19:57:47.413Z,17.72
2019-03-29T20:02:48.583Z,17.62
2019-03-29T20:07:49.899Z,17.55
2019-03-29T20:12:52.819Z,17.46
2019-03-29T20:17:54.911Z,17.32
2019-03-29T20:22:56.990Z,17.29
2019-03-29T20:27:59.034Z,17.15
2019-03-29T20:33:00.459Z,17.04
2019-03-29T20:38:01.774Z,16.88
2019-03-29T20:43:03.109Z,16.86
2019-03-29T20:48:04.486Z,16.92
2019-03-29T20:53:05.808Z,16.87
2019-03-29T20:58:08.013Z,16.77
2019-03-29T21:03:09.483Z,16.70
2019-03-29T21:08:10.825Z,16.59
2019-03-29T21:13:12.144Z,16.39
2019-03-29T21:18:13.492Z,16.32
2019-03-29T21:23:14.822Z,16.32
2019-03-29T21:28:16.273Z,16.31
2019-03-29T21:33:17.614Z,16.27
2019-03-29T21:38:18.951Z,16.17
2019-03-29T21:43:20.300Z,16.01
2019-03-29T21:48:28.710Z,15.91
2019-03-29T21:53:23.633Z,15.86
2019-03-29T21:58:25.062Z,15.78
2019-03-29T22:03:27.149Z,15.72
2019-03-29T22:08:29.086Z,15.58
2019-03-29T22:13:30.479Z,15.45
2019-03-29T22:18:37.802Z,15.33
2019-03-29T22:23:33.385Z,15.21
2019-03-29T22:28:34.810Z,15.11
2019-03-29T22:33:36.219Z,15.02
2019-03-29T22:38:37.654Z,14.85
2019-03-29T22:43:39.062Z,14.75
2019-03-29T22:48:51.571Z,14.68
2019-03-29T22:53:41.873Z,14.57
2019-03-29T22:58:43.270Z,14.45
2019-03-29T23:35:26.509Z,13.82
2019-03-29T23:40:27.785Z,13.74
2019-03-29T23:45:29.083Z,13.60
2019-03-29T23:50:30.401Z,13.50
2019-03-29T23:55:31.736Z,13.40
